createdAt,value
2022-12-03T00:02:13.706Z,10.43
2022-12-03T00:04:40.488Z,11.77
2022-12-03T00:07:07.190Z,11.77
2022-12-03T00:09:33.860Z,12.27
2022-12-03T00:12:00.595Z,12.70
2022-12-03T00:14:27.396Z,11.23
2022-12-03T00:16:54.107Z,12.32
2022-12-03T00:19:20.825Z,11.43
2022-12-03T00:21:47.603Z,11.90
2022-12-03T00:24:14.259Z,11.85
2022-12-03T00:26:40.975Z,11.90
2022-12-03T00:29:07.719Z,11.05
2022-12-03T00:31:34.436Z,12.30
2022-12-03T00:34:01.297Z,11.10
2022-12-03T00:36:28.097Z,11.80
2022-12-03T00:38:54.819Z,12.73
2022-12-03T00:41:21.588Z,10.63
2022-12-03T00:43:48.243Z,12.40
2022-12-03T00:46:20.927Z,12.30
2022-12-03T00:48:48.147Z,11.75
2022-12-03T00:51:14.869Z,12.13
2022-12-03T00:53:41.582Z,11.63
2022-12-03T00:56:08.773Z,11.97
2022-12-03T00:58:35.466Z,11.48
2022-12-03T01:01:02.524Z,12.00
2022-12-03T01:03:29.340Z,11.95
2022-12-03T01:05:56.104Z,9.77
2022-12-03T01:08:22.909Z,11.43
2022-12-03T01:10:49.642Z,12.55
2022-12-03T01:13:16.347Z,10.75
2022-12-03T01:15:43.208Z,11.80
2022-12-03T01:18:10.028Z,11.40
2022-12-03T01:20:36.724Z,12.25
2022-12-03T01:23:03.453Z,11.50
2022-12-03T01:25:30.541Z,11.57
2022-12-03T01:27:57.232Z,13.05
2022-12-03T01:30:23.933Z,11.33
2022-12-03T01:32:50.596Z,10.98
2022-12-03T01:35:17.330Z,12.15
2022-12-03T01:37:44.065Z,11.52
2022-12-03T01:40:15.786Z,12.60
2022-12-03T01:42:42.744Z,12.20
2022-12-03T01:45:22.586Z,12.63
2022-12-03T01:47:49.665Z,11.93
2022-12-03T01:50:27.140Z,10.70
2022-12-03T01:52:55.888Z,10.75
2022-12-03T01:55:25.069Z,13.82
2022-12-03T01:57:54.649Z,12.57
2022-12-03T02:00:24.308Z,11.48
2022-12-03T02:02:54.959Z,10.77
2022-12-03T02:05:30.615Z,11.65
2022-12-03T02:07:58.157Z,11.88
2022-12-03T02:10:36.105Z,11.20
2022-12-03T02:13:08.554Z,11.20
2022-12-03T02:15:37.883Z,12.35
2022-12-03T02:18:05.216Z,12.40
2022-12-03T02:20:42.960Z,12.25
2022-12-03T02:23:28.240Z,12.50
2022-12-03T02:25:55.024Z,11.60
2022-12-03T02:28:21.936Z,11.88
2022-12-03T02:30:48.641Z,12.38
2022-12-03T02:33:15.427Z,12.45
2022-12-03T02:35:42.139Z,11.20
2022-12-03T02:38:22.926Z,11.85
2022-12-03T02:40:53.489Z,12.63
2022-12-03T02:43:21.565Z,11.63
2022-12-03T02:45:55.201Z,12.45
2022-12-03T02:48:35.476Z,13.10
2022-12-03T02:51:05.861Z,11.32
2022-12-03T02:53:45.691Z,13.13
2022-12-03T02:56:15.968Z,11.73
2022-12-03T02:58:44.905Z,12.23
2022-12-03T03:01:12.128Z,12.75
2022-12-03T03:03:39.333Z,11.75
2022-12-03T03:06:08.108Z,12.27
2022-12-03T03:08:36.945Z,11.75
2022-12-03T03:11:04.201Z,12.77
2022-12-03T03:13:33.593Z,11.27
2022-12-03T03:16:04.418Z,11.85
2022-12-03T03:18:32.608Z,12.23
2022-12-03T03:20:59.429Z,12.50
2022-12-03T03:23:26.301Z,12.70
2022-12-03T03:26:10.382Z,11.80
2022-12-03T03:28:45.593Z,11.80
2022-12-03T03:31:15.272Z,12.57
2022-12-03T03:33:43.812Z,12.77
2022-12-03T03:36:11.127Z,13.30
2022-12-03T03:38:39.088Z,14.00
2022-12-03T03:41:07.063Z,12.95
2022-12-03T03:43:35.589Z,14.32
2022-12-03T03:46:06.427Z,12.52
2022-12-03T03:48:34.741Z,9.97
2022-12-03T03:51:09.307Z,11.45
2022-12-03T03:53:42.283Z,13.27
2022-12-03T03:56:09.667Z,13.68
2022-12-03T03:58:36.966Z,13.20
2022-12-03T04:01:03.818Z,13.30
2022-12-03T04:03:30.581Z,11.88
2022-12-03T04:05:57.431Z,12.23
2022-12-03T04:08:24.231Z,13.68
2022-12-03T04:11:09.695Z,12.18
2022-12-03T04:13:36.363Z,11.70
2022-12-03T04:16:03.218Z,12.93
2022-12-03T04:18:44.821Z,13.82
2022-12-03T04:21:36.197Z,13.10
2022-12-03T04:24:04.004Z,12.15
2022-12-03T04:26:49.898Z,12.87
2022-12-03T04:29:18.076Z,12.75
2022-12-03T04:32:03.791Z,12.95
2022-12-03T04:34:49.314Z,12.55
2022-12-03T04:37:16.474Z,12.05
2022-12-03T04:39:43.404Z,13.27
2022-12-03T04:42:10.112Z,12.32
2022-12-03T04:44:36.957Z,13.18
2022-12-03T04:47:12.998Z,13.48
2022-12-03T04:49:42.305Z,13.07
2022-12-03T04:52:10.540Z,14.70
2022-12-03T04:54:37.920Z,13.35
2022-12-03T04:57:05.574Z,12.82
2022-12-03T04:59:32.943Z,13.30
2022-12-03T05:02:00.002Z,12.82
2022-12-03T05:04:27.031Z,14.83
2022-12-03T05:06:53.879Z,12.63
2022-12-03T05:09:20.844Z,14.05
2022-12-03T05:11:47.729Z,13.00
2022-12-03T05:14:14.461Z,13.63
2022-12-03T05:16:41.230Z,14.27
2022-12-03T05:19:08.940Z,15.07
2022-12-03T05:21:35.746Z,13.73
2022-12-03T05:24:02.812Z,14.48
2022-12-03T05:26:29.853Z,13.37
2022-12-03T05:28:56.680Z,14.20
2022-12-03T05:31:23.375Z,14.57
2022-12-03T05:33:50.490Z,14.95
2022-12-03T05:36:17.444Z,13.57
2022-12-03T05:38:44.177Z,13.63
2022-12-03T05:41:29.467Z,16.42
2022-12-03T05:43:56.217Z,14.60
2022-12-03T05:46:22.983Z,15.25
2022-12-03T05:48:49.816Z,13.70
2022-12-03T05:51:16.544Z,16.73
2022-12-03T05:53:43.199Z,14.43
2022-12-03T05:56:09.909Z,14.77
2022-12-03T05:58:36.677Z,15.40
2022-12-03T06:01:03.421Z,16.10
2022-12-03T06:03:30.250Z,16.73
2022-12-03T06:05:57.174Z,15.77
2022-12-03T06:08:23.900Z,15.93
2022-12-03T06:10:50.648Z,15.50
2022-12-03T06:13:17.453Z,14.20
2022-12-03T06:15:44.401Z,14.57
2022-12-03T06:18:11.628Z,14.27
2022-12-03T06:20:38.344Z,13.55
2022-12-03T06:23:05.041Z,15.10
2022-12-03T06:25:31.881Z,14.83
2022-12-03T06:27:58.613Z,14.32
2022-12-03T06:30:25.318Z,15.27
2022-12-03T06:32:52.684Z,14.75
2022-12-03T06:35:19.378Z,14.95
2022-12-03T06:37:48.962Z,15.17
2022-12-03T06:40:16.736Z,15.23
2022-12-03T06:42:43.835Z,14.32
2022-12-03T06:45:11.640Z,14.55
2022-12-03T06:47:38.434Z,13.07
2022-12-03T06:50:07.568Z,15.10
2022-12-03T06:52:34.520Z,15.43
2022-12-03T06:55:01.482Z,14.27
2022-12-03T06:57:28.232Z,15.40
2022-12-03T06:59:55.124Z,14.50
2022-12-03T07:02:22.175Z,14.93
2022-12-03T07:04:48.906Z,14.32
2022-12-03T07:07:15.580Z,15.35
2022-12-03T07:09:42.721Z,14.07
2022-12-03T07:12:09.468Z,13.57
2022-12-03T07:14:36.203Z,12.50
2022-12-03T07:17:03.038Z,13.30
2022-12-03T07:19:32.886Z,14.57
2022-12-03T07:22:00.326Z,13.57
2022-12-03T07:24:27.631Z,14.23
2022-12-03T07:26:54.413Z,14.35
2022-12-03T07:29:21.167Z,13.60
2022-12-03T07:31:48.054Z,13.32
2022-12-03T07:34:14.859Z,13.97
2022-12-03T07:36:41.606Z,14.55
2022-12-03T07:39:08.262Z,13.40
2022-12-03T07:41:34.970Z,15.15
2022-12-03T07:44:01.804Z,14.63
2022-12-03T07:46:28.548Z,13.63
2022-12-03T07:48:55.336Z,13.15
2022-12-03T07:51:23.447Z,15.23
2022-12-03T07:53:52.870Z,14.25
2022-12-03T07:56:19.561Z,14.98
2022-12-03T07:58:46.412Z,13.93
2022-12-03T08:01:13.188Z,14.60
2022-12-03T08:03:40.091Z,14.98
2022-12-03T08:06:07.069Z,14.63
2022-12-03T08:08:33.799Z,15.38
2022-12-03T08:11:01.929Z,14.37
2022-12-03T08:13:28.867Z,12.90
2022-12-03T08:15:59.497Z,14.70
2022-12-03T08:18:27.959Z,15.90
2022-12-03T08:20:54.624Z,13.68
2022-12-03T08:23:24.133Z,15.10
2022-12-03T08:25:52.053Z,14.70
2022-12-03T08:28:24.133Z,13.98
2022-12-03T08:31:18.460Z,15.40
2022-12-03T08:33:46.388Z,15.40
2022-12-03T08:36:25.255Z,15.63
2022-12-03T08:38:54.718Z,14.80
2022-12-03T08:41:41.320Z,16.27
2022-12-03T08:44:38.427Z,17.02
2022-12-03T08:47:22.859Z,15.30
2022-12-03T08:50:22.564Z,15.37
2022-12-03T08:52:49.476Z,15.18
2022-12-03T08:55:36.305Z,14.82
2022-12-03T08:58:27.783Z,14.85
2022-12-03T09:01:05.264Z,15.50
2022-12-03T09:03:57.129Z,14.25
2022-12-03T09:06:23.858Z,14.88
2022-12-03T09:08:50.651Z,16.15
2022-12-03T09:11:17.391Z,15.15
2022-12-03T09:13:44.260Z,14.63
2022-12-03T09:16:11.208Z,15.55
2022-12-03T09:18:37.939Z,15.32
2022-12-03T09:21:04.932Z,15.20
2022-12-03T09:23:31.654Z,17.05
2022-12-03T09:25:59.125Z,16.98
2022-12-03T09:28:25.930Z,15.32
2022-12-03T09:30:52.593Z,15.27
2022-12-03T09:33:19.333Z,16.30
2022-12-03T09:35:46.124Z,15.27
2022-12-03T09:38:12.840Z,14.68
2022-12-03T09:40:40.664Z,13.95
2022-12-03T09:43:07.520Z,16.02
2022-12-03T09:45:34.526Z,14.05
2022-12-03T09:48:03.873Z,13.30
2022-12-03T09:50:31.314Z,12.45
2022-12-03T09:53:02.642Z,11.48
2022-12-03T09:55:30.759Z,12.85
2022-12-03T09:57:58.085Z,12.00
2022-12-03T10:00:27.904Z,12.60
2022-12-03T10:02:58.299Z,12.77
2022-12-03T10:05:25.754Z,13.82
2022-12-03T10:07:52.830Z,13.27
2022-12-03T10:10:25.044Z,12.98
2022-12-03T10:12:52.698Z,12.63
2022-12-03T10:15:22.934Z,13.00
2022-12-03T10:17:52.383Z,12.98
2022-12-03T10:20:21.161Z,11.90
2022-12-03T10:22:51.224Z,12.30
2022-12-03T10:25:20.862Z,13.40
2022-12-03T10:27:59.927Z,13.93
2022-12-03T10:30:28.548Z,13.77
2022-12-03T10:32:58.156Z,15.15
2022-12-03T10:35:37.422Z,12.63
2022-12-03T10:38:07.478Z,14.43
2022-12-03T10:40:37.076Z,13.40
2022-12-03T10:43:20.084Z,13.83
2022-12-03T10:46:08.444Z,13.63
2022-12-03T10:48:35.212Z,13.88
2022-12-03T10:51:10.119Z,13.70
2022-12-03T10:53:39.868Z,13.83
2022-12-03T10:56:11.700Z,13.93
2022-12-03T10:58:40.526Z,12.15
2022-12-03T11:01:18.912Z,14.63
2022-12-03T11:03:46.051Z,14.45
2022-12-03T11:06:16.537Z,14.07
2022-12-03T11:08:47.441Z,13.65
2022-12-03T11:11:24.869Z,14.65
2022-12-03T11:13:55.558Z,12.68
2022-12-03T11:16:51.348Z,14.57
2022-12-03T11:19:39.199Z,12.57
2022-12-03T11:22:05.923Z,13.48
2022-12-03T11:24:41.404Z,13.50
2022-12-03T11:27:16.861Z,13.57
2022-12-03T11:30:01.151Z,13.18
2022-12-03T11:32:42.802Z,11.55
2022-12-03T11:35:14.289Z,12.40
2022-12-03T11:37:41.019Z,13.30
2022-12-03T11:40:16.889Z,12.90
2022-12-03T11:42:45.074Z,11.90
2022-12-03T11:45:30.841Z,11.70
2022-12-03T11:48:04.810Z,10.60
2022-12-03T11:50:39.692Z,10.88
2022-12-03T11:53:19.164Z,9.83
2022-12-03T11:55:51.974Z,10.18
2022-12-03T11:58:26.350Z,8.77
2022-12-03T12:00:58.477Z,10.35
2022-12-03T12:03:28.478Z,10.40
2022-12-03T12:06:07.761Z,10.07
2022-12-03T12:08:37.270Z,9.45
2022-12-03T12:11:15.466Z,10.80
2022-12-03T12:13:45.005Z,9.73
2022-12-03T12:16:12.039Z,9.77
2022-12-03T12:18:46.560Z,11.07
2022-12-03T12:21:41.943Z,11.02
2022-12-03T12:24:45.807Z,10.95
2022-12-03T12:27:45.535Z,10.40
2022-12-03T12:30:18.182Z,10.38
2022-12-03T12:32:47.722Z,10.10
2022-12-03T12:35:25.951Z,10.20
2022-12-03T12:38:10.831Z,10.20
2022-12-03T12:40:39.912Z,11.38
2022-12-03T12:43:25.668Z,10.73
2022-12-03T12:45:54.696Z,10.73
2022-12-03T12:48:34.168Z,11.23
2022-12-03T12:51:08.841Z,11.15
2022-12-03T12:53:37.124Z,10.38
2022-12-03T12:56:27.196Z,12.57
2022-12-03T12:58:56.494Z,11.35
2022-12-03T13:01:28.404Z,11.40
2022-12-03T13:03:56.508Z,12.20
2022-12-03T13:06:28.363Z,11.45
2022-12-03T13:08:55.312Z,11.43
2022-12-03T13:11:25.000Z,12.00
2022-12-03T13:13:52.352Z,13.35
2022-12-03T13:16:19.867Z,13.13
2022-12-03T13:18:53.823Z,12.65
2022-12-03T13:21:21.271Z,14.88
2022-12-03T13:23:50.828Z,13.35
2022-12-03T13:26:38.201Z,14.85
2022-12-03T13:29:15.147Z,12.73
2022-12-03T13:32:03.290Z,14.17
2022-12-03T13:34:33.735Z,14.15
2022-12-03T13:37:12.483Z,15.10
2022-12-03T13:39:43.775Z,15.45
2022-12-03T13:42:38.816Z,16.10
2022-12-03T13:45:14.739Z,17.38
2022-12-03T13:47:43.237Z,17.27
2022-12-03T13:50:36.400Z,16.23
2022-12-03T13:53:37.348Z,15.83
2022-12-03T13:56:15.882Z,15.07
2022-12-03T13:58:42.605Z,15.35
2022-12-03T14:01:09.425Z,16.20
2022-12-03T14:03:36.181Z,15.65
2022-12-03T14:06:02.994Z,14.27
2022-12-03T14:08:29.810Z,14.48
2022-12-03T14:11:00.334Z,15.85
2022-12-03T14:13:27.724Z,15.80
2022-12-03T14:15:54.560Z,15.20
2022-12-03T14:18:21.404Z,15.50
2022-12-03T14:20:48.275Z,13.40
2022-12-03T14:23:15.333Z,16.27
2022-12-03T14:25:43.925Z,14.30
2022-12-03T14:28:10.969Z,13.60
2022-12-03T14:30:37.699Z,13.00
2022-12-03T14:33:04.395Z,14.18
2022-12-03T14:35:31.055Z,11.73
2022-12-03T14:37:57.778Z,13.30
2022-12-03T14:40:24.485Z,12.95
2022-12-03T14:42:51.252Z,13.70
2022-12-03T14:45:17.931Z,13.18
2022-12-03T14:47:44.648Z,11.75
2022-12-03T14:50:14.422Z,11.65
2022-12-03T14:52:41.451Z,12.82
2022-12-03T14:55:08.657Z,11.65
2022-12-03T14:57:36.943Z,11.85
2022-12-03T15:00:05.494Z,12.40
2022-12-03T15:02:32.307Z,11.90
2022-12-03T15:04:59.125Z,11.77
2022-12-03T15:07:25.841Z,12.75
2022-12-03T15:09:52.866Z,11.82
2022-12-03T15:12:19.828Z,11.30
2022-12-03T15:14:47.497Z,13.23
2022-12-03T15:17:14.300Z,12.73
2022-12-03T15:19:41.445Z,12.98
2022-12-03T15:22:08.160Z,12.75
2022-12-03T15:24:34.840Z,14.17
2022-12-03T15:27:01.597Z,12.57
2022-12-03T15:29:28.408Z,13.15
2022-12-03T15:31:55.227Z,13.20
2022-12-03T15:34:23.113Z,14.63
2022-12-03T15:36:50.341Z,14.38
2022-12-03T15:39:17.079Z,15.15
2022-12-03T15:41:43.744Z,16.45
2022-12-03T15:44:10.610Z,13.48
2022-12-03T15:46:37.452Z,16.92
2022-12-03T15:49:04.236Z,15.98
2022-12-03T15:51:30.906Z,16.77
2022-12-03T15:53:57.552Z,17.47
2022-12-03T15:56:24.191Z,18.20
2022-12-03T15:58:50.953Z,17.52
2022-12-03T16:01:18.227Z,16.25
2022-12-03T16:03:45.373Z,16.63
2022-12-03T16:06:12.607Z,16.95
2022-12-03T16:08:39.301Z,17.70
2022-12-03T16:11:06.197Z,18.85
2022-12-03T16:13:32.876Z,16.47
2022-12-03T16:15:59.630Z,18.10
2022-12-03T16:18:26.384Z,15.85
2022-12-03T16:20:53.113Z,17.00
2022-12-03T16:23:19.772Z,18.37
2022-12-03T16:25:46.587Z,17.10
2022-12-03T16:28:13.335Z,17.42
2022-12-03T16:30:40.131Z,16.85
2022-12-03T16:33:06.850Z,17.70
2022-12-03T16:35:33.555Z,18.33
2022-12-03T16:38:00.253Z,15.85
2022-12-03T16:40:26.983Z,16.65
2022-12-03T16:42:53.647Z,17.97
2022-12-03T16:45:40.605Z,18.17
2022-12-03T16:48:07.307Z,17.08
2022-12-03T16:50:34.504Z,18.05
2022-12-03T16:53:01.239Z,16.67
2022-12-03T16:55:27.977Z,16.67
2022-12-03T16:57:54.720Z,16.80
2022-12-03T17:00:25.882Z,16.20
2022-12-03T17:02:52.803Z,16.00
2022-12-03T17:05:19.588Z,16.42
2022-12-03T17:07:46.365Z,17.02
2022-12-03T17:10:13.509Z,17.77
2022-12-03T17:13:07.604Z,17.67
2022-12-03T17:15:27.110Z,17.20
2022-12-03T17:17:53.820Z,16.67
2022-12-03T17:20:20.511Z,16.48
2022-12-03T17:22:47.164Z,16.30
2022-12-03T17:25:13.947Z,17.10
2022-12-03T17:27:44.989Z,16.02
2022-12-03T17:30:12.900Z,17.95
2022-12-03T17:32:39.950Z,15.33
2022-12-03T17:35:07.200Z,16.58
2022-12-03T17:37:33.936Z,16.42
2022-12-03T17:40:00.664Z,15.88
2022-12-03T17:42:27.338Z,18.23
2022-12-03T17:44:54.051Z,18.73
2022-12-03T17:47:24.307Z,16.52
2022-12-03T17:49:51.014Z,17.05
2022-12-03T17:52:17.754Z,17.70
2022-12-03T17:55:09.304Z,17.20
2022-12-03T17:57:31.179Z,17.55
2022-12-03T17:59:57.837Z,16.95
2022-12-03T18:02:24.558Z,18.67
2022-12-03T18:04:52.491Z,18.15
2022-12-03T18:07:19.164Z,18.10
2022-12-03T18:09:45.816Z,16.98
2022-12-03T18:12:12.783Z,16.87
2022-12-03T18:14:39.423Z,17.63
2022-12-03T18:17:06.146Z,15.93
2022-12-03T18:19:32.916Z,16.13
2022-12-03T18:21:59.637Z,17.23
2022-12-03T18:24:26.481Z,17.67
2022-12-03T18:26:53.241Z,17.98
2022-12-03T18:29:19.951Z,16.30
2022-12-03T18:31:46.694Z,17.37
2022-12-03T18:34:14.054Z,18.77
2022-12-03T18:36:40.820Z,17.73
2022-12-03T18:39:12.224Z,18.63
2022-12-03T18:41:39.179Z,16.13
2022-12-03T18:44:09.449Z,15.85
2022-12-03T18:46:53.850Z,18.63
2022-12-03T18:49:20.855Z,17.40
2022-12-03T18:51:48.428Z,17.38
2022-12-03T18:54:15.622Z,15.57
2022-12-03T18:56:42.370Z,16.10
2022-12-03T18:59:09.581Z,15.52
2022-12-03T19:01:36.714Z,15.80
2022-12-03T19:04:03.829Z,15.93
2022-12-03T19:06:30.663Z,15.55
2022-12-03T19:08:57.792Z,15.25
2022-12-03T19:11:24.673Z,17.33
2022-12-03T19:13:52.053Z,17.00
2022-12-03T19:16:19.113Z,16.45
2022-12-03T19:18:45.894Z,17.27
2022-12-03T19:21:15.050Z,18.23
2022-12-03T19:23:47.338Z,16.65
2022-12-03T19:26:25.767Z,17.33
2022-12-03T19:28:53.820Z,15.60
2022-12-03T19:31:20.884Z,18.70
2022-12-03T19:33:48.276Z,16.75
2022-12-03T19:36:23.672Z,17.02
2022-12-03T19:38:56.635Z,17.30
2022-12-03T19:41:27.219Z,15.73
2022-12-03T19:43:55.901Z,16.02
2022-12-03T19:46:24.393Z,16.05
2022-12-03T19:48:51.429Z,14.95
2022-12-03T19:51:33.970Z,15.27
2022-12-03T19:54:01.164Z,15.48
2022-12-03T19:56:30.202Z,15.98
2022-12-03T19:58:57.726Z,16.30
2022-12-03T20:01:27.861Z,16.60
2022-12-03T20:03:56.210Z,16.60
2022-12-03T20:06:25.728Z,16.33
2022-12-03T20:08:58.077Z,15.90
2022-12-03T20:11:28.239Z,17.17
2022-12-03T20:13:57.531Z,15.15
2022-12-03T20:16:25.614Z,16.20
2022-12-03T20:18:56.835Z,17.42
2022-12-03T20:21:23.525Z,17.20
2022-12-03T20:23:50.582Z,17.58
2022-12-03T20:26:20.073Z,17.10
2022-12-03T20:28:50.633Z,16.30
2022-12-03T20:31:19.673Z,16.27
2022-12-03T20:33:49.213Z,15.65
2022-12-03T20:36:18.276Z,16.55
2022-12-03T20:38:45.339Z,15.48
2022-12-03T20:41:21.398Z,16.73
2022-12-03T20:43:48.839Z,16.75
2022-12-03T20:46:31.056Z,16.60
2022-12-03T20:48:58.504Z,15.38
2022-12-03T20:51:27.819Z,16.93
2022-12-03T20:53:54.539Z,16.20
2022-12-03T20:56:27.370Z,16.90
2022-12-03T20:58:54.561Z,16.42
2022-12-03T21:01:23.935Z,17.87
2022-12-03T21:03:51.850Z,15.80
2022-12-03T21:06:19.750Z,16.52
2022-12-03T21:08:46.787Z,15.27
2022-12-03T21:11:17.112Z,18.30
2022-12-03T21:13:45.076Z,16.15
2022-12-03T21:16:14.545Z,16.70
2022-12-03T21:18:41.840Z,16.58
2022-12-03T21:21:10.367Z,16.23
2022-12-03T21:23:37.081Z,17.65
2022-12-03T21:26:15.260Z,15.98
2022-12-03T21:28:44.106Z,15.40
2022-12-03T21:31:14.051Z,17.40
2022-12-03T21:33:40.948Z,16.08
2022-12-03T21:36:08.549Z,17.27
2022-12-03T21:38:36.168Z,17.35
2022-12-03T21:41:03.848Z,16.10
2022-12-03T21:43:31.169Z,16.15
2022-12-03T21:45:58.177Z,15.95
2022-12-03T21:48:24.858Z,16.52
2022-12-03T21:51:18.244Z,14.87
2022-12-03T21:53:45.750Z,15.85
2022-12-03T21:56:15.459Z,17.85
2022-12-03T21:58:42.538Z,15.95
2022-12-03T22:01:15.045Z,15.97
2022-12-03T22:03:42.201Z,15.48
2022-12-03T22:06:10.009Z,16.33
2022-12-03T22:08:37.418Z,16.42
2022-12-03T22:11:15.661Z,18.07
2022-12-03T22:13:42.759Z,17.50
2022-12-03T22:16:12.951Z,15.93
2022-12-03T22:18:39.747Z,17.38
2022-12-03T22:21:08.811Z,17.73
2022-12-03T22:23:35.911Z,17.25
2022-12-03T22:26:05.924Z,17.60
2022-12-03T22:28:33.626Z,16.42
2022-12-03T22:31:05.136Z,15.13
2022-12-03T22:33:31.877Z,17.30
2022-12-03T22:36:01.872Z,19.17
2022-12-03T22:38:30.512Z,17.10
2022-12-03T22:40:57.427Z,18.27
2022-12-03T22:43:24.524Z,19.23
2022-12-03T22:45:55.449Z,16.65
2022-12-03T22:48:23.181Z,19.17
2022-12-03T22:50:52.328Z,16.77
2022-12-03T22:53:19.659Z,18.55
2022-12-03T22:55:54.961Z,17.13
2022-12-03T22:58:22.316Z,18.37
2022-12-03T23:00:49.230Z,16.55
2022-12-03T23:03:16.259Z,17.88
2022-12-03T23:05:43.211Z,17.10
2022-12-03T23:08:13.372Z,17.88
2022-12-03T23:10:44.272Z,17.73
2022-12-03T23:13:11.826Z,18.85
2022-12-03T23:15:50.395Z,19.77
2022-12-03T23:18:18.147Z,17.45
2022-12-03T23:20:50.576Z,19.45
2022-12-03T23:23:19.513Z,17.10
2022-12-03T23:26:00.792Z,18.97
2022-12-03T23:28:29.340Z,17.90
2022-12-03T23:30:56.726Z,18.10
2022-12-03T23:33:24.206Z,18.52
2022-12-03T23:35:50.956Z,18.07
2022-12-03T23:38:18.281Z,19.17
2022-12-03T23:40:48.209Z,19.17
2022-12-03T23:43:16.054Z,19.45
2022-12-03T23:45:42.841Z,19.67
2022-12-03T23:48:09.540Z,19.77
2022-12-03T23:50:39.666Z,18.52
2022-12-03T23:53:06.423Z,20.17
2022-12-03T23:55:33.589Z,18.37
2022-12-03T23:58:00.338Z,18.70
